createdAt,value
2023-05-21T00:00:27.754Z,100.00
2023-05-21T00:02:54.517Z,100.00
2023-05-21T00:05:21.652Z,100.00
2023-05-21T00:07:48.226Z,100.00
2023-05-21T00:10:14.906Z,100.00
2023-05-21T00:12:41.499Z,100.00
2023-05-21T00:15:08.917Z,100.00
2023-05-21T00:17:35.644Z,100.00
2023-05-21T00:20:03.339Z,100.00
2023-05-21T00:22:29.832Z,100.00
2023-05-21T00:24:56.675Z,100.00
2023-05-21T00:27:23.203Z,100.00
2023-05-21T00:29:49.896Z,100.00
2023-05-21T00:32:16.839Z,100.00
2023-05-21T00:34:43.289Z,100.00
2023-05-21T00:37:09.798Z,100.00
2023-05-21T00:39:36.388Z,100.00
2023-05-21T00:42:02.889Z,100.00
2023-05-21T00:44:29.798Z,100.00
2023-05-21T00:46:56.570Z,100.00
2023-05-21T00:49:23.677Z,100.00
2023-05-21T00:51:50.498Z,100.00
2023-05-21T00:54:17.384Z,100.00
2023-05-21T00:56:45.022Z,100.00
2023-05-21T00:59:11.545Z,100.00
2023-05-21T01:01:38.100Z,100.00
2023-05-21T01:04:05.030Z,100.00
2023-05-21T01:06:31.495Z,100.00
2023-05-21T01:08:58.375Z,100.00
2023-05-21T01:11:37.691Z,100.00
2023-05-21T01:14:05.548Z,100.00
2023-05-21T01:16:32.508Z,100.00
2023-05-21T01:18:59.542Z,100.00
2023-05-21T01:21:29.480Z,100.00
2023-05-21T01:23:56.332Z,100.00
2023-05-21T01:26:23.122Z,100.00
2023-05-21T01:28:49.616Z,100.00
2023-05-21T01:31:33.317Z,100.00
2023-05-21T01:34:02.246Z,100.00
2023-05-21T01:36:38.593Z,100.00
2023-05-21T01:39:18.671Z,100.00
2023-05-21T01:41:46.159Z,100.00
2023-05-21T01:44:15.187Z,100.00
2023-05-21T01:46:41.782Z,100.00
2023-05-21T01:49:09.132Z,100.00
2023-05-21T01:51:36.865Z,100.00
2023-05-21T01:54:03.767Z,100.00
2023-05-21T01:56:30.525Z,100.00
2023-05-21T01:58:57.022Z,100.00
2023-05-21T02:01:23.555Z,100.00
2023-05-21T02:03:50.237Z,100.00
2023-05-21T02:06:16.874Z,100.00
2023-05-21T02:08:43.525Z,100.00
2023-05-21T02:11:10.057Z,100.00
2023-05-21T02:13:36.544Z,100.00
2023-05-21T02:16:03.244Z,100.00
2023-05-21T02:18:29.714Z,100.00
2023-05-21T02:20:56.181Z,100.00
2023-05-21T02:23:22.724Z,100.00
2023-05-21T02:25:49.220Z,100.00
2023-05-21T02:28:15.890Z,100.00
2023-05-21T02:30:42.374Z,100.00
2023-05-21T02:33:08.852Z,100.00
2023-05-21T02:35:35.507Z,100.00
2023-05-21T02:38:02.253Z,100.00
2023-05-21T02:40:29.015Z,100.00
2023-05-21T02:42:55.576Z,100.00
2023-05-21T02:45:22.087Z,100.00
2023-05-21T02:47:48.630Z,100.00
2023-05-21T02:50:15.393Z,100.00
2023-05-21T02:52:42.530Z,100.00
2023-05-21T02:55:09.666Z,100.00
2023-05-21T02:57:36.400Z,100.00
2023-05-21T03:00:03.221Z,100.00
2023-05-21T03:02:29.766Z,100.00
2023-05-21T03:04:56.717Z,100.00
2023-05-21T03:07:23.831Z,100.00
2023-05-21T03:09:50.544Z,100.00
2023-05-21T03:12:17.184Z,100.00
2023-05-21T03:14:43.687Z,100.00
2023-05-21T03:17:10.427Z,100.00
2023-05-21T03:19:37.099Z,100.00
2023-05-21T03:22:04.554Z,100.00
2023-05-21T03:24:31.591Z,100.00
2023-05-21T03:26:58.184Z,100.00
2023-05-21T03:29:25.242Z,100.00
2023-05-21T03:31:53.318Z,100.00
2023-05-21T03:34:20.119Z,100.00
2023-05-21T03:36:47.791Z,100.00
2023-05-21T03:39:14.884Z,100.00
2023-05-21T03:41:41.662Z,100.00
2023-05-21T03:44:08.959Z,100.00
2023-05-21T03:46:35.608Z,100.00
2023-05-21T03:49:02.447Z,100.00
2023-05-21T03:51:29.214Z,100.00
2023-05-21T03:53:58.348Z,100.00
2023-05-21T03:56:25.075Z,100.00
2023-05-21T03:58:52.095Z,100.00
2023-05-21T04:01:20.107Z,100.00
2023-05-21T04:03:46.934Z,100.00
2023-05-21T04:06:13.901Z,100.00
2023-05-21T04:08:40.454Z,100.00
2023-05-21T04:11:07.021Z,100.00
2023-05-21T04:13:33.655Z,100.00
2023-05-21T04:16:00.277Z,100.00
2023-05-21T04:18:26.923Z,100.00
2023-05-21T04:20:53.669Z,100.00
2023-05-21T04:23:20.170Z,100.00
2023-05-21T04:25:47.024Z,100.00
2023-05-21T04:28:13.543Z,100.00
2023-05-21T04:30:40.055Z,100.00
2023-05-21T04:33:06.801Z,100.00
2023-05-21T04:35:33.683Z,100.00
2023-05-21T04:38:02.274Z,100.00
2023-05-21T04:40:30.276Z,100.00
2023-05-21T04:42:56.880Z,100.00
2023-05-21T04:45:23.347Z,100.00
2023-05-21T04:47:50.003Z,100.00
2023-05-21T04:50:16.669Z,100.00
2023-05-21T04:52:43.167Z,100.00
2023-05-21T04:55:10.309Z,100.00
2023-05-21T04:57:37.303Z,100.00
2023-05-21T05:00:04.587Z,100.00
2023-05-21T05:02:31.063Z,100.00
2023-05-21T05:04:57.592Z,100.00
2023-05-21T05:07:24.036Z,100.00
2023-05-21T05:09:50.585Z,100.00
2023-05-21T05:12:17.201Z,100.00
2023-05-21T05:14:43.660Z,100.00
2023-05-21T05:17:10.175Z,100.00
2023-05-21T05:19:36.789Z,100.00
2023-05-21T05:22:03.474Z,100.00
2023-05-21T05:24:30.134Z,100.00
2023-05-21T05:26:56.849Z,100.00
2023-05-21T05:29:23.322Z,100.00
2023-05-21T05:31:49.860Z,100.00
2023-05-21T05:34:16.442Z,100.00
2023-05-21T05:36:43.196Z,100.00
2023-05-21T05:39:09.699Z,100.00
2023-05-21T05:41:36.372Z,100.00
2023-05-21T05:44:03.157Z,100.00
2023-05-21T05:46:29.695Z,100.00
2023-05-21T05:48:56.367Z,100.00
2023-05-21T05:51:22.821Z,100.00
2023-05-21T05:53:49.557Z,100.00
2023-05-21T05:56:16.065Z,100.00
2023-05-21T05:58:42.782Z,100.00
2023-05-21T06:01:09.279Z,100.00
2023-05-21T06:03:35.977Z,100.00
2023-05-21T06:06:02.883Z,100.00
2023-05-21T06:08:29.523Z,100.00
2023-05-21T06:10:56.047Z,100.00
2023-05-21T06:13:22.559Z,100.00
2023-05-21T06:15:49.124Z,100.00
2023-05-21T06:18:16.219Z,100.00
2023-05-21T06:20:42.693Z,100.00
2023-05-21T06:23:09.158Z,100.00
2023-05-21T06:25:36.151Z,100.00
2023-05-21T06:28:02.976Z,100.00
2023-05-21T06:30:29.414Z,100.00
2023-05-21T06:32:56.060Z,100.00
2023-05-21T06:35:23.357Z,100.00
2023-05-21T06:37:49.884Z,100.00
2023-05-21T06:40:16.464Z,100.00
2023-05-21T06:42:42.961Z,100.00
2023-05-21T06:45:10.124Z,100.00
2023-05-21T06:47:36.689Z,100.00
2023-05-21T06:50:03.859Z,100.00
2023-05-21T06:52:30.383Z,100.00
2023-05-21T06:54:56.942Z,100.00
2023-05-21T06:57:23.442Z,100.00
2023-05-21T06:59:50.032Z,100.00
2023-05-21T07:02:16.618Z,100.00
2023-05-21T07:04:43.224Z,100.00
2023-05-21T07:07:09.868Z,99.72
2023-05-21T07:09:36.366Z,100.00
2023-05-21T07:12:02.906Z,99.59
2023-05-21T07:14:29.390Z,99.43
2023-05-21T07:16:56.000Z,96.79
2023-05-21T07:19:22.645Z,97.13
2023-05-21T07:21:49.637Z,98.04
2023-05-21T07:24:16.153Z,97.91
2023-05-21T07:26:42.813Z,95.20
2023-05-21T07:29:09.280Z,94.35
2023-05-21T07:31:35.910Z,94.68
2023-05-21T07:34:02.635Z,92.19
2023-05-21T07:36:29.309Z,92.27
2023-05-21T07:38:55.998Z,91.18
2023-05-21T07:41:22.469Z,90.21
2023-05-21T07:43:49.473Z,90.86
2023-05-21T07:46:16.048Z,88.60
2023-05-21T07:48:42.616Z,88.45
2023-05-21T07:51:09.123Z,88.50
2023-05-21T07:53:35.794Z,89.49
2023-05-21T07:56:02.643Z,87.89
2023-05-21T07:58:29.127Z,88.04
2023-05-21T08:00:55.798Z,87.49
2023-05-21T08:03:22.502Z,79.47
2023-05-21T08:05:49.217Z,71.70
2023-05-21T08:08:16.633Z,71.00
2023-05-21T08:10:43.530Z,73.05
2023-05-21T08:13:11.913Z,71.73
2023-05-21T08:15:38.839Z,71.00
2023-05-21T08:18:05.649Z,64.90
2023-05-21T08:20:32.571Z,67.92
2023-05-21T08:22:59.877Z,67.19
2023-05-21T08:25:27.275Z,67.79
2023-05-21T08:27:54.518Z,63.99
2023-05-21T08:30:21.114Z,67.23
2023-05-21T08:32:48.856Z,64.40
2023-05-21T08:35:15.415Z,61.27
2023-05-21T08:37:42.154Z,62.71
2023-05-21T08:40:12.668Z,61.93
2023-05-21T08:42:47.339Z,59.08
2023-05-21T08:45:15.084Z,58.74
2023-05-21T08:47:43.530Z,61.31
2023-05-21T08:50:12.475Z,61.68
2023-05-21T08:52:39.200Z,59.90
2023-05-21T08:55:06.470Z,60.44
2023-05-21T08:57:33.166Z,57.72
2023-05-21T09:00:00.340Z,59.87
2023-05-21T09:02:27.304Z,57.55
2023-05-21T09:04:54.492Z,56.56
2023-05-21T09:07:21.264Z,55.25
2023-05-21T09:10:12.192Z,54.33
2023-05-21T09:12:38.697Z,53.37
2023-05-21T09:15:06.038Z,51.57
2023-05-21T09:17:32.592Z,53.78
2023-05-21T09:20:12.857Z,53.20
2023-05-21T09:22:50.073Z,52.05
2023-05-21T09:25:18.852Z,49.69
2023-05-21T09:27:45.394Z,51.35
2023-05-21T09:30:13.912Z,51.18
2023-05-21T09:32:41.559Z,50.32
2023-05-21T09:35:13.055Z,50.32
2023-05-21T09:37:44.320Z,48.00
2023-05-21T09:40:19.417Z,47.42
2023-05-21T09:42:49.085Z,48.44
2023-05-21T09:45:19.636Z,47.89
2023-05-21T09:47:47.900Z,46.93
2023-05-21T09:50:19.152Z,46.00
2023-05-21T09:52:45.993Z,46.39
2023-05-21T09:55:14.201Z,46.39
2023-05-21T09:57:45.456Z,45.83
2023-05-21T10:00:22.889Z,44.24
2023-05-21T10:02:57.417Z,45.05
2023-05-21T10:05:28.958Z,44.07
2023-05-21T10:08:03.111Z,42.88
2023-05-21T10:10:31.352Z,44.05
2023-05-21T10:13:06.295Z,44.16
2023-05-21T10:15:42.605Z,43.66
2023-05-21T10:18:10.953Z,44.48
2023-05-21T10:20:38.163Z,45.28
2023-05-21T10:23:06.116Z,45.04
2023-05-21T10:25:33.389Z,44.81
2023-05-21T10:28:00.268Z,45.26
2023-05-21T10:30:27.532Z,45.39
2023-05-21T10:32:56.096Z,45.57
2023-05-21T10:35:23.383Z,44.28
2023-05-21T10:37:51.553Z,44.01
2023-05-21T10:40:18.251Z,46.05
2023-05-21T10:42:50.560Z,44.90
2023-05-21T10:45:31.846Z,45.60
2023-05-21T10:48:36.570Z,44.84
2023-05-21T10:51:27.731Z,44.86
2023-05-21T10:54:00.159Z,45.39
2023-05-21T10:56:41.199Z,45.28
2023-05-21T10:59:26.007Z,44.21
2023-05-21T11:01:53.951Z,44.69
2023-05-21T11:04:26.871Z,44.57
2023-05-21T11:06:53.580Z,43.05
2023-05-21T11:09:20.468Z,42.03
2023-05-21T11:11:51.925Z,43.15
2023-05-21T11:14:38.196Z,43.76
2023-05-21T11:17:07.517Z,43.41
2023-05-21T11:19:35.996Z,43.35
2023-05-21T11:22:23.878Z,42.18
2023-05-21T11:24:51.628Z,41.39
2023-05-21T11:27:31.956Z,40.20
2023-05-21T11:29:58.453Z,40.44
2023-05-21T11:32:25.216Z,40.70
2023-05-21T11:34:51.756Z,39.47
2023-05-21T11:37:18.302Z,39.39
2023-05-21T11:39:45.485Z,40.17
2023-05-21T11:42:12.749Z,38.84
2023-05-21T11:44:43.712Z,39.59
2023-05-21T11:47:12.413Z,40.12
2023-05-21T11:49:39.603Z,39.35
2023-05-21T11:52:08.932Z,39.69
2023-05-21T11:54:42.594Z,39.82
2023-05-21T11:57:09.531Z,37.43
2023-05-21T11:59:36.844Z,39.28
2023-05-21T12:02:04.422Z,38.80
2023-05-21T12:04:34.898Z,38.76
2023-05-21T12:07:06.953Z,39.21
2023-05-21T12:09:44.830Z,39.41
2023-05-21T12:12:14.042Z,39.08
2023-05-21T12:14:44.667Z,40.59
2023-05-21T12:17:11.337Z,39.81
2023-05-21T12:19:38.439Z,39.80
2023-05-21T12:22:05.673Z,39.23
2023-05-21T12:24:33.636Z,39.87
2023-05-21T12:27:01.874Z,38.97
2023-05-21T12:29:32.444Z,38.97
2023-05-21T12:32:00.903Z,39.59
2023-05-21T12:34:48.252Z,39.11
2023-05-21T12:37:21.856Z,39.27
2023-05-21T12:39:50.178Z,39.19
2023-05-21T12:42:17.244Z,39.03
2023-05-21T12:44:46.592Z,38.88
2023-05-21T12:47:13.836Z,39.36
2023-05-21T12:49:42.656Z,39.18
2023-05-21T12:52:12.918Z,39.27
2023-05-21T12:54:40.496Z,38.31
2023-05-21T12:57:17.341Z,37.79
2023-05-21T12:59:46.571Z,37.82
2023-05-21T13:02:39.468Z,37.07
2023-05-21T13:05:10.857Z,37.00
2023-05-21T13:07:39.208Z,36.37
2023-05-21T13:10:06.809Z,35.89
2023-05-21T13:12:34.999Z,35.59
2023-05-21T13:15:03.269Z,34.09
2023-05-21T13:17:30.368Z,33.12
2023-05-21T13:20:10.418Z,33.87
2023-05-21T13:22:39.098Z,32.96
2023-05-21T13:25:07.235Z,33.40
2023-05-21T13:27:33.752Z,33.17
2023-05-21T13:30:00.933Z,31.95
2023-05-21T13:32:27.731Z,31.60
2023-05-21T13:34:54.715Z,29.16
2023-05-21T13:37:21.254Z,30.19
2023-05-21T13:39:47.861Z,31.52
2023-05-21T13:42:14.551Z,31.06
2023-05-21T13:44:41.367Z,31.00
2023-05-21T13:47:08.823Z,30.54
2023-05-21T13:49:35.548Z,29.80
2023-05-21T13:52:03.622Z,30.68
2023-05-21T13:54:30.572Z,29.74
2023-05-21T13:56:57.386Z,27.81
2023-05-21T13:59:23.986Z,29.65
2023-05-21T14:01:50.958Z,29.13
2023-05-21T14:04:18.951Z,29.26
2023-05-21T14:06:46.393Z,29.45
2023-05-21T14:09:13.785Z,29.54
2023-05-21T14:11:40.574Z,27.54
2023-05-21T14:14:07.779Z,27.34
2023-05-21T14:16:34.333Z,28.09
2023-05-21T14:19:01.061Z,28.65
2023-05-21T14:21:27.573Z,27.96
2023-05-21T14:23:54.261Z,28.14
2023-05-21T14:26:20.759Z,27.79
2023-05-21T14:28:47.211Z,26.48
2023-05-21T14:31:14.969Z,26.34
2023-05-21T14:33:41.480Z,27.92
2023-05-21T14:36:08.113Z,27.59
2023-05-21T14:38:34.565Z,26.58
2023-05-21T14:41:01.076Z,26.57
2023-05-21T14:43:27.518Z,26.36
2023-05-21T14:45:54.056Z,25.65
2023-05-21T14:48:20.936Z,27.09
2023-05-21T14:50:47.589Z,28.08
2023-05-21T14:53:14.108Z,28.93
2023-05-21T14:55:40.837Z,29.32
2023-05-21T14:58:07.799Z,30.05
2023-05-21T15:00:35.749Z,30.64
2023-05-21T15:03:03.304Z,31.86
2023-05-21T15:05:29.916Z,32.57
2023-05-21T15:07:57.546Z,33.26
2023-05-21T15:10:25.711Z,34.26
2023-05-21T15:12:52.925Z,34.53
2023-05-21T15:15:20.382Z,34.68
2023-05-21T15:17:48.075Z,34.66
2023-05-21T15:20:15.000Z,35.27
2023-05-21T15:22:41.736Z,35.94
2023-05-21T15:25:09.283Z,36.20
2023-05-21T15:27:35.861Z,35.97
2023-05-21T15:30:02.613Z,35.45
2023-05-21T15:32:29.353Z,34.81
2023-05-21T15:34:56.114Z,33.77
2023-05-21T15:37:22.765Z,32.28
2023-05-21T15:39:49.353Z,31.99
2023-05-21T15:42:16.017Z,31.52
2023-05-21T15:44:42.526Z,30.42
2023-05-21T15:47:09.413Z,29.97
2023-05-21T15:49:35.976Z,30.40
2023-05-21T15:52:02.499Z,30.18
2023-05-21T15:54:29.936Z,29.49
2023-05-21T15:56:56.753Z,28.93
2023-05-21T15:59:23.450Z,29.95
2023-05-21T16:01:49.960Z,28.31
2023-05-21T16:04:16.568Z,27.98
2023-05-21T16:06:43.541Z,27.83
2023-05-21T16:09:10.085Z,28.27
2023-05-21T16:11:36.730Z,28.86
2023-05-21T16:14:03.319Z,28.12
2023-05-21T16:16:30.061Z,28.03
2023-05-21T16:18:56.585Z,28.21
2023-05-21T16:21:23.844Z,28.73
2023-05-21T16:23:50.510Z,28.14
2023-05-21T16:26:17.021Z,28.18
2023-05-21T16:28:43.774Z,29.02
2023-05-21T16:31:10.274Z,30.00
2023-05-21T16:33:36.758Z,29.96
2023-05-21T16:36:03.427Z,30.83
2023-05-21T16:38:29.947Z,31.89
2023-05-21T16:40:56.622Z,32.08
2023-05-21T16:43:23.144Z,32.49
2023-05-21T16:45:49.696Z,32.09
2023-05-21T16:48:16.149Z,31.76
2023-05-21T16:50:42.929Z,31.39
2023-05-21T16:53:09.654Z,31.44
2023-05-21T16:55:38.000Z,31.45
2023-05-21T16:58:06.238Z,31.63
2023-05-21T17:00:34.268Z,31.54
2023-05-21T17:03:00.890Z,31.57
2023-05-21T17:05:27.815Z,31.62
2023-05-21T17:07:54.294Z,32.35
2023-05-21T17:10:21.211Z,32.81
2023-05-21T17:12:47.828Z,32.94
2023-05-21T17:15:14.337Z,32.78
2023-05-21T17:17:40.838Z,32.91
2023-05-21T17:20:08.159Z,33.11
2023-05-21T17:22:34.815Z,33.69
2023-05-21T17:25:01.314Z,34.34
2023-05-21T17:27:27.852Z,35.00
2023-05-21T17:29:54.417Z,35.59
2023-05-21T17:32:20.874Z,35.59
2023-05-21T17:34:47.579Z,35.88
2023-05-21T17:37:14.227Z,36.38
2023-05-21T17:39:41.307Z,36.41
2023-05-21T17:42:07.834Z,36.55
2023-05-21T17:44:34.342Z,36.45
2023-05-21T17:47:00.917Z,36.47
2023-05-21T17:49:27.452Z,36.73
2023-05-21T17:51:54.423Z,36.97
2023-05-21T17:54:20.910Z,37.37
2023-05-21T17:56:47.455Z,37.75
2023-05-21T17:59:14.267Z,38.52
2023-05-21T18:01:41.067Z,38.63
2023-05-21T18:04:08.083Z,39.04
2023-05-21T18:06:34.549Z,39.23
2023-05-21T18:09:01.128Z,39.66
2023-05-21T18:11:27.648Z,40.26
2023-05-21T18:13:54.344Z,40.61
2023-05-21T18:16:21.024Z,41.05
2023-05-21T18:18:47.835Z,41.57
2023-05-21T18:21:14.493Z,42.19
2023-05-21T18:23:40.956Z,42.62
2023-05-21T18:26:07.463Z,43.25
2023-05-21T18:28:33.989Z,43.29
2023-05-21T18:31:00.459Z,43.82
2023-05-21T18:33:27.415Z,43.97
2023-05-21T18:35:54.547Z,44.31
2023-05-21T18:38:21.849Z,44.34
2023-05-21T18:40:50.438Z,44.77
2023-05-21T18:43:17.781Z,44.99
2023-05-21T18:45:45.173Z,45.49
2023-05-21T18:48:11.919Z,45.92
2023-05-21T18:50:39.334Z,46.20
2023-05-21T18:53:06.168Z,46.81
2023-05-21T18:55:34.464Z,47.65
2023-05-21T18:58:01.182Z,48.01
2023-05-21T19:00:27.725Z,48.15
2023-05-21T19:02:55.625Z,48.62
2023-05-21T19:05:22.435Z,49.62
2023-05-21T19:07:49.112Z,49.50
2023-05-21T19:10:15.624Z,49.37
2023-05-21T19:12:43.192Z,49.85
2023-05-21T19:15:10.509Z,49.91
2023-05-21T19:17:37.408Z,49.77
2023-05-21T19:20:04.523Z,49.87
2023-05-21T19:22:31.437Z,50.05
2023-05-21T19:24:58.127Z,50.18
2023-05-21T19:27:24.653Z,50.31
2023-05-21T19:29:51.134Z,50.34
2023-05-21T19:32:17.746Z,50.64
2023-05-21T19:34:44.576Z,50.68
2023-05-21T19:37:11.209Z,51.04
2023-05-21T19:39:38.814Z,51.26
2023-05-21T19:42:06.296Z,51.54
2023-05-21T19:44:33.175Z,51.73
2023-05-21T19:47:01.038Z,51.96
2023-05-21T19:49:28.026Z,52.03
2023-05-21T19:51:55.270Z,52.29
2023-05-21T19:54:23.027Z,52.62
2023-05-21T19:56:50.357Z,52.95
2023-05-21T19:59:17.882Z,52.96
2023-05-21T20:01:44.771Z,53.37
2023-05-21T20:04:12.387Z,53.72
2023-05-21T20:06:39.204Z,54.28
2023-05-21T20:09:06.503Z,54.11
2023-05-21T20:11:33.626Z,54.53
2023-05-21T20:14:00.130Z,54.44
2023-05-21T20:16:26.674Z,54.60
2023-05-21T20:18:53.291Z,54.93
2023-05-21T20:21:19.896Z,54.94
2023-05-21T20:23:46.954Z,54.97
2023-05-21T20:26:14.472Z,55.49
2023-05-21T20:28:41.706Z,55.61
2023-05-21T20:31:08.567Z,56.06
2023-05-21T20:33:37.123Z,56.04
2023-05-21T20:36:04.670Z,56.04
2023-05-21T20:38:31.095Z,56.44
2023-05-21T20:40:57.615Z,56.78
2023-05-21T20:43:24.142Z,56.96
2023-05-21T20:45:51.133Z,57.03
2023-05-21T20:48:17.657Z,57.40
2023-05-21T20:50:44.205Z,57.83
2023-05-21T20:53:11.203Z,58.16
2023-05-21T20:55:38.457Z,58.60
2023-05-21T20:58:05.371Z,58.84
2023-05-21T21:00:32.143Z,59.58
2023-05-21T21:02:59.352Z,59.12
2023-05-21T21:05:25.969Z,60.16
2023-05-21T21:07:55.462Z,60.40
2023-05-21T21:10:22.677Z,60.41
2023-05-21T21:12:49.381Z,60.64
2023-05-21T21:15:16.030Z,61.91
2023-05-21T21:17:42.606Z,61.75
2023-05-21T21:20:09.369Z,62.47
2023-05-21T21:22:35.833Z,62.89
2023-05-21T21:25:02.356Z,62.78
2023-05-21T21:27:28.881Z,62.97
2023-05-21T21:29:55.321Z,63.10
2023-05-21T21:32:21.876Z,64.32
2023-05-21T21:34:48.850Z,64.18
2023-05-21T21:37:16.383Z,64.38
2023-05-21T21:39:43.177Z,66.12
2023-05-21T21:42:09.710Z,65.16
2023-05-21T21:44:36.162Z,65.44
2023-05-21T21:47:02.734Z,66.87
2023-05-21T21:49:29.288Z,66.89
2023-05-21T21:51:55.775Z,67.18
2023-05-21T21:54:22.324Z,68.91
2023-05-21T21:56:49.186Z,69.02
2023-05-21T21:59:15.698Z,68.10
2023-05-21T22:01:43.085Z,67.71
2023-05-21T22:04:09.714Z,67.99
2023-05-21T22:06:36.333Z,68.41
2023-05-21T22:09:02.895Z,68.79
2023-05-21T22:11:29.653Z,71.01
2023-05-21T22:13:56.212Z,69.45
2023-05-21T22:16:22.930Z,69.38
2023-05-21T22:18:49.579Z,69.51
2023-05-21T22:21:16.038Z,69.76
2023-05-21T22:23:42.939Z,71.58
2023-05-21T22:26:10.010Z,71.04
2023-05-21T22:28:36.579Z,72.60
2023-05-21T22:31:03.699Z,72.23
2023-05-21T22:33:30.434Z,72.03
2023-05-21T22:35:57.214Z,71.81
2023-05-21T22:38:24.969Z,72.63
2023-05-21T22:40:51.641Z,72.71
2023-05-21T22:43:18.518Z,72.68
2023-05-21T22:45:45.187Z,75.52
2023-05-21T22:48:11.787Z,74.40
2023-05-21T22:50:38.884Z,74.83
2023-05-21T22:53:07.089Z,74.87
2023-05-21T22:55:33.807Z,74.17
2023-05-21T22:58:00.332Z,74.81
2023-05-21T23:00:27.739Z,74.48
2023-05-21T23:02:54.901Z,74.77
2023-05-21T23:05:21.996Z,75.06
2023-05-21T23:07:48.778Z,75.86
2023-05-21T23:10:15.291Z,75.36
2023-05-21T23:12:41.807Z,77.21
2023-05-21T23:15:08.919Z,78.65
2023-05-21T23:17:35.385Z,77.05
2023-05-21T23:20:02.038Z,76.70
2023-05-21T23:22:28.578Z,76.66
2023-05-21T23:24:55.079Z,76.89
2023-05-21T23:27:21.530Z,77.21
2023-05-21T23:29:48.158Z,77.18
2023-05-21T23:32:15.329Z,77.19
2023-05-21T23:34:41.857Z,77.14
2023-05-21T23:37:08.625Z,77.36
2023-05-21T23:39:35.395Z,77.80
2023-05-21T23:42:02.281Z,78.52
2023-05-21T23:44:28.917Z,78.38
2023-05-21T23:46:55.420Z,78.19
2023-05-21T23:49:22.085Z,78.36
2023-05-21T23:51:49.020Z,78.80
2023-05-21T23:54:15.515Z,79.40
2023-05-21T23:56:42.006Z,79.69
2023-05-21T23:59:08.698Z,80.09
